sensor_id;sensor_type;location;lat;lon;timestamp;temperature;humidity
37938;DHT22;23763;48.130;11.602;2023-12-20T00:01:22;7.30;99.90
37938;DHT22;23763;48.130;11.602;2023-12-20T00:03:48;7.50;99.90
37938;DHT22;23763;48.130;11.602;2023-12-20T00:08:40;7.50;99.90
37938;DHT22;23763;48.130;11.602;2023-12-20T00:33:00;7.70;99.90
37938;DHT22;23763;48.130;11.602;2023-12-20T00:35:25;7.70;99.90
37938;DHT22;23763;48.130;11.602;2023-12-20T00:37:51;7.50;99.90
37938;DHT22;23763;48.130;11.602;2023-12-20T00:45:09;7.60;99.90
37938;DHT22;23763;48.130;11.602;2023-12-20T00:59:44;7.90;99.90
37938;DHT22;23763;48.130;11.602;2023-12-20T01:14:20;7.50;99.90
37938;DHT22;23763;48.130;11.602;2023-12-20T01:19:12;7.70;99.90
37938;DHT22;23763;48.130;11.602;2023-12-20T01:28:57;7.90;99.90
37938;DHT22;23763;48.130;11.602;2023-12-20T01:36:15;7.90;99.90
37938;DHT22;23763;48.130;11.602;2023-12-20T01:48:25;8.10;99.90
37938;DHT22;23763;48.130;11.602;2023-12-20T01:50:52;8.00;99.90
37938;DHT22;23763;48.130;11.602;2023-12-20T01:53:20;7.60;99.90
37938;DHT22;23763;48.130;11.602;2023-12-20T01:55:48;7.70;99.90
37938;DHT22;23763;48.130;11.602;2023-12-20T02:05:35;7.90;99.90
37938;DHT22;23763;48.130;11.602;2023-12-20T02:12:54;7.90;99.90
37938;DHT22;23763;48.130;11.602;2023-12-20T02:17:47;7.90;99.90
37938;DHT22;23763;48.130;11.602;2023-12-20T02:20:13;7.90;99.90
37938;DHT22;23763;48.130;11.602;2023-12-20T02:22:39;8.00;99.90
37938;DHT22;23763;48.130;11.602;2023-12-20T02:27:31;7.90;99.90
37938;DHT22;23763;48.130;11.602;2023-12-20T02:32:24;7.90;99.90
37938;DHT22;23763;48.130;11.602;2023-12-20T02:34:54;8.00;99.90
37938;DHT22;23763;48.130;11.602;2023-12-20T02:37:22;8.10;99.90
37938;DHT22;23763;48.130;11.602;2023-12-20T02:44:40;8.30;99.90
37938;DHT22;23763;48.130;11.602;2023-12-20T02:49:32;8.50;99.90
37938;DHT22;23763;48.130;11.602;2023-12-20T02:51:57;8.30;99.90
37938;DHT22;23763;48.130;11.602;2023-12-20T02:54:23;8.20;99.90
37938;DHT22;23763;48.130;11.602;2023-12-20T03:01:45;8.30;99.90
37938;DHT22;23763;48.130;11.602;2023-12-20T03:04:11;8.10;99.90
37938;DHT22;23763;48.130;11.602;2023-12-20T03:06:37;8.60;99.90
37938;DHT22;23763;48.130;11.602;2023-12-20T03:11:29;8.40;99.90
37938;DHT22;23763;48.130;11.602;2023-12-20T03:13:56;7.50;99.90
37938;DHT22;23763;48.130;11.602;2023-12-20T03:18:47;8.10;99.90
37938;DHT22;23763;48.130;11.602;2023-12-20T03:21:13;8.30;99.90
37938;DHT22;23763;48.130;11.602;2023-12-20T03:23:38;8.20;99.90
37938;DHT22;23763;48.130;11.602;2023-12-20T03:26:07;8.10;99.90
37938;DHT22;23763;48.130;11.602;2023-12-20T03:28:33;8.20;99.90
37938;DHT22;23763;48.130;11.602;2023-12-20T03:30:59;8.10;99.90
37938;DHT22;23763;48.130;11.602;2023-12-20T03:35:50;8.30;99.90
37938;DHT22;23763;48.130;11.602;2023-12-20T03:40:42;8.40;99.90
37938;DHT22;23763;48.130;11.602;2023-12-20T03:43:08;8.20;99.90
37938;DHT22;23763;48.130;11.602;2023-12-20T03:45:33;8.60;99.90
37938;DHT22;23763;48.130;11.602;2023-12-20T03:47:59;8.20;99.90
37938;DHT22;23763;48.130;11.602;2023-12-20T03:50:25;8.70;99.90
37938;DHT22;23763;48.130;11.602;2023-12-20T03:55:17;7.80;99.90
37938;DHT22;23763;48.130;11.602;2023-12-20T03:57:43;8.30;99.90
37938;DHT22;23763;48.130;11.602;2023-12-20T04:02:37;8.10;99.90
37938;DHT22;23763;48.130;11.602;2023-12-20T04:05:02;8.40;99.90
37938;DHT22;23763;48.130;11.602;2023-12-20T04:12:21;7.90;99.90
37938;DHT22;23763;48.130;11.602;2023-12-20T04:17:13;7.90;99.90
37938;DHT22;23763;48.130;11.602;2023-12-20T04:19:41;7.70;99.90
37938;DHT22;23763;48.130;11.602;2023-12-20T04:24:33;7.70;99.90
37938;DHT22;23763;48.130;11.602;2023-12-20T04:26:59;8.00;99.90
37938;DHT22;23763;48.130;11.602;2023-12-20T04:29:24;7.50;99.90
37938;DHT22;23763;48.130;11.602;2023-12-20T04:31:50;7.80;99.90
37938;DHT22;23763;48.130;11.602;2023-12-20T04:34:18;7.70;99.90
37938;DHT22;23763;48.130;11.602;2023-12-20T04:39:11;7.60;99.90
37938;DHT22;23763;48.130;11.602;2023-12-20T04:44:03;8.00;99.90
37938;DHT22;23763;48.130;11.602;2023-12-20T04:46:28;7.30;99.90
37938;DHT22;23763;48.130;11.602;2023-12-20T04:58:38;7.70;99.90
37938;DHT22;23763;48.130;11.602;2023-12-20T05:01:06;7.90;99.90
37938;DHT22;23763;48.130;11.602;2023-12-20T05:10:54;7.50;99.90
37938;DHT22;23763;48.130;11.602;2023-12-20T05:18:12;7.20;99.90
37938;DHT22;23763;48.130;11.602;2023-12-20T05:23:04;7.10;99.90
37938;DHT22;23763;48.130;11.602;2023-12-20T05:25:30;7.20;99.90
37938;DHT22;23763;48.130;11.602;2023-12-20T05:30:22;7.10;99.90
37938;DHT22;23763;48.130;11.602;2023-12-20T05:35:14;6.70;99.90
37938;DHT22;23763;48.130;11.602;2023-12-20T05:37:41;6.70;99.90
37938;DHT22;23763;48.130;11.602;2023-12-20T05:45:01;6.70;99.90
37938;DHT22;23763;48.130;11.602;2023-12-20T05:49:53;6.80;99.90
37938;DHT22;23763;48.130;11.602;2023-12-20T05:52:18;6.60;99.90
37938;DHT22;23763;48.130;11.602;2023-12-20T05:54:44;6.60;99.90
37938;DHT22;23763;48.130;11.602;2023-12-20T05:57:10;6.50;99.90
37938;DHT22;23763;48.130;11.602;2023-12-20T05:59:36;6.50;99.90
37938;DHT22;23763;48.130;11.602;2023-12-20T06:02:03;6.10;99.90
37938;DHT22;23763;48.130;11.602;2023-12-20T06:04:29;6.30;99.90
37938;DHT22;23763;48.130;11.602;2023-12-20T06:06:54;6.30;99.90
37938;DHT22;23763;48.130;11.602;2023-12-20T06:09:20;6.20;99.90
37938;DHT22;23763;48.130;11.602;2023-12-20T06:11:45;5.90;99.90
37938;DHT22;23763;48.130;11.602;2023-12-20T06:16:37;6.40;99.90
37938;DHT22;23763;48.130;11.602;2023-12-20T06:19:03;6.40;99.90
37938;DHT22;23763;48.130;11.602;2023-12-20T06:21:29;6.20;99.90
37938;DHT22;23763;48.130;11.602;2023-12-20T06:23:54;6.30;99.90
37938;DHT22;23763;48.130;11.602;2023-12-20T06:26:20;6.30;99.90
37938;DHT22;23763;48.130;11.602;2023-12-20T06:31:12;6.20;99.90
37938;DHT22;23763;48.130;11.602;2023-12-20T06:33:38;6.10;99.90
37938;DHT22;23763;48.130;11.602;2023-12-20T06:36:06;6.30;99.90
37938;DHT22;23763;48.130;11.602;2023-12-20T06:40:57;5.90;99.90
37938;DHT22;23763;48.130;11.602;2023-12-20T06:43:24;6.10;99.90
37938;DHT22;23763;48.130;11.602;2023-12-20T06:45:49;5.60;99.90
37938;DHT22;23763;48.130;11.602;2023-12-20T06:48:16;5.60;99.90
37938;DHT22;23763;48.130;11.602;2023-12-20T06:50:42;5.90;99.90
37938;DHT22;23763;48.130;11.602;2023-12-20T06:53:07;5.90;99.90
37938;DHT22;23763;48.130;11.602;2023-12-20T06:55:36;6.00;99.90
37938;DHT22;23763;48.130;11.602;2023-12-20T06:58:03;5.90;99.90
37938;DHT22;23763;48.130;11.602;2023-12-20T07:00:30;6.20;99.90
37938;DHT22;23763;48.130;11.602;2023-12-20T07:02:56;5.70;99.90
37938;DHT22;23763;48.130;11.602;2023-12-20T07:05:22;5.90;99.90
37938;DHT22;23763;48.130;11.602;2023-12-20T07:10:16;5.80;99.90
37938;DHT22;23763;48.130;11.602;2023-12-20T07:12:42;5.60;99.90
37938;DHT22;23763;48.130;11.602;2023-12-20T07:15:08;5.90;99.90
37938;DHT22;23763;48.130;11.602;2023-12-20T07:20:00;6.20;99.90
37938;DHT22;23763;48.130;11.602;2023-12-20T07:22:33;6.00;99.90
37938;DHT22;23763;48.130;11.602;2023-12-20T07:24:59;5.90;99.90
37938;DHT22;23763;48.130;11.602;2023-12-20T07:27:25;5.80;99.90
37938;DHT22;23763;48.130;11.602;2023-12-20T07:29:51;5.80;99.90
37938;DHT22;23763;48.130;11.602;2023-12-20T07:32:17;5.80;99.90
37938;DHT22;23763;48.130;11.602;2023-12-20T07:34:43;5.90;99.90
37938;DHT22;23763;48.130;11.602;2023-12-20T07:39:51;5.80;99.90
37938;DHT22;23763;48.130;11.602;2023-12-20T07:42:17;5.90;99.90
37938;DHT22;23763;48.130;11.602;2023-12-20T07:44:42;6.10;99.90
37938;DHT22;23763;48.130;11.602;2023-12-20T07:47:08;5.90;99.90
37938;DHT22;23763;48.130;11.602;2023-12-20T07:49:33;5.80;99.90
37938;DHT22;23763;48.130;11.602;2023-12-20T07:54:31;5.80;99.90
37938;DHT22;23763;48.130;11.602;2023-12-20T07:59:23;6.00;99.90
37938;DHT22;23763;48.130;11.602;2023-12-20T08:04:24;6.00;99.90
37938;DHT22;23763;48.130;11.602;2023-12-20T08:06:50;5.80;99.90
37938;DHT22;23763;48.130;11.602;2023-12-20T08:09:16;5.80;99.90
37938;DHT22;23763;48.130;11.602;2023-12-20T08:11:45;5.80;99.90
37938;DHT22;23763;48.130;11.602;2023-12-20T08:14:11;5.90;99.90
37938;DHT22;23763;48.130;11.602;2023-12-20T08:16:37;6.20;99.90
37938;DHT22;23763;48.130;11.602;2023-12-20T08:19:02;6.10;99.90
37938;DHT22;23763;48.130;11.602;2023-12-20T08:21:28;5.60;99.90
37938;DHT22;23763;48.130;11.602;2023-12-20T08:23:54;5.90;99.90
37938;DHT22;23763;48.130;11.602;2023-12-20T08:26:20;5.90;99.90
37938;DHT22;23763;48.130;11.602;2023-12-20T08:28:47;5.80;99.90
37938;DHT22;23763;48.130;11.602;2023-12-20T08:31:16;5.60;99.90
37938;DHT22;23763;48.130;11.602;2023-12-20T08:33:47;5.80;99.90
37938;DHT22;23763;48.130;11.602;2023-12-20T08:36:13;5.70;99.90
37938;DHT22;23763;48.130;11.602;2023-12-20T08:38:41;5.80;99.90
37938;DHT22;23763;48.130;11.602;2023-12-20T08:41:07;5.80;99.90
37938;DHT22;23763;48.130;11.602;2023-12-20T08:43:34;5.80;99.90
37938;DHT22;23763;48.130;11.602;2023-12-20T08:46:00;5.80;99.90
37938;DHT22;23763;48.130;11.602;2023-12-20T08:48:26;5.80;99.90
37938;DHT22;23763;48.130;11.602;2023-12-20T08:55:57;6.00;99.90
37938;DHT22;23763;48.130;11.602;2023-12-20T08:58:26;5.90;99.90
37938;DHT22;23763;48.130;11.602;2023-12-20T09:00:52;6.20;99.90
37938;DHT22;23763;48.130;11.602;2023-12-20T09:03:17;6.10;99.90
37938;DHT22;23763;48.130;11.602;2023-12-20T09:05:43;6.10;99.90
37938;DHT22;23763;48.130;11.602;2023-12-20T09:08:09;6.10;99.90
37938;DHT22;23763;48.130;11.602;2023-12-20T09:13:11;6.60;99.90
37938;DHT22;23763;48.130;11.602;2023-12-20T09:15:37;6.30;99.90
37938;DHT22;23763;48.130;11.602;2023-12-20T09:18:03;6.30;99.90
37938;DHT22;23763;48.130;11.602;2023-12-20T09:20:28;6.50;99.90
37938;DHT22;23763;48.130;11.602;2023-12-20T09:22:54;6.40;99.90
37938;DHT22;23763;48.130;11.602;2023-12-20T09:25:20;6.50;99.90
37938;DHT22;23763;48.130;11.602;2023-12-20T09:27:45;6.50;99.90
37938;DHT22;23763;48.130;11.602;2023-12-20T09:30:12;6.60;99.90
37938;DHT22;23763;48.130;11.602;2023-12-20T09:32:38;6.60;99.90
37938;DHT22;23763;48.130;11.602;2023-12-20T09:35:04;6.70;99.90
37938;DHT22;23763;48.130;11.602;2023-12-20T09:37:31;6.60;99.90
37938;DHT22;23763;48.130;11.602;2023-12-20T09:39:57;6.50;99.90
37938;DHT22;23763;48.130;11.602;2023-12-20T09:43:04;6.50;99.90
37938;DHT22;23763;48.130;11.602;2023-12-20T09:45:42;6.40;99.90
37938;DHT22;23763;48.130;11.602;2023-12-20T09:48:11;6.40;99.90
37938;DHT22;23763;48.130;11.602;2023-12-20T09:50:39;6.40;99.90
37938;DHT22;23763;48.130;11.602;2023-12-20T09:53:08;6.40;99.90
37938;DHT22;23763;48.130;11.602;2023-12-20T09:55:36;6.50;99.90
37938;DHT22;23763;48.130;11.602;2023-12-20T09:58:02;6.40;99.90
37938;DHT22;23763;48.130;11.602;2023-12-20T10:00:28;6.50;99.90
37938;DHT22;23763;48.130;11.602;2023-12-20T10:02:58;6.70;99.90
37938;DHT22;23763;48.130;11.602;2023-12-20T10:05:34;6.50;99.90
37938;DHT22;23763;48.130;11.602;2023-12-20T10:08:00;6.50;99.90
37938;DHT22;23763;48.130;11.602;2023-12-20T10:10:27;6.50;99.90
37938;DHT22;23763;48.130;11.602;2023-12-20T10:13:10;6.60;99.90
37938;DHT22;23763;48.130;11.602;2023-12-20T10:15:36;6.60;99.90
37938;DHT22;23763;48.130;11.602;2023-12-20T10:18:03;6.70;99.90
37938;DHT22;23763;48.130;11.602;2023-12-20T10:20:29;6.70;99.90
37938;DHT22;23763;48.130;11.602;2023-12-20T10:22:56;6.80;99.90
37938;DHT22;23763;48.130;11.602;2023-12-20T10:25:22;6.90;99.90
37938;DHT22;23763;48.130;11.602;2023-12-20T10:28:22;6.80;99.90
37938;DHT22;23763;48.130;11.602;2023-12-20T10:30:56;6.80;99.90
37938;DHT22;23763;48.130;11.602;2023-12-20T10:33:28;6.80;99.90
37938;DHT22;23763;48.130;11.602;2023-12-20T10:35:55;6.90;99.90
37938;DHT22;23763;48.130;11.602;2023-12-20T10:38:21;6.70;99.90
37938;DHT22;23763;48.130;11.602;2023-12-20T10:43:16;6.80;99.90
37938;DHT22;23763;48.130;11.602;2023-12-20T10:45:42;6.80;99.90
37938;DHT22;23763;48.130;11.602;2023-12-20T10:48:11;7.50;99.90
37938;DHT22;23763;48.130;11.602;2023-12-20T10:50:41;6.80;99.90
37938;DHT22;23763;48.130;11.602;2023-12-20T10:53:07;6.70;99.90
37938;DHT22;23763;48.130;11.602;2023-12-20T10:55:33;6.80;99.90
37938;DHT22;23763;48.130;11.602;2023-12-20T10:58:08;6.70;99.90
37938;DHT22;23763;48.130;11.602;2023-12-20T11:00:40;6.90;99.90
37938;DHT22;23763;48.130;11.602;2023-12-20T11:03:09;6.90;99.90
37938;DHT22;23763;48.130;11.602;2023-12-20T11:06:03;6.90;99.90
37938;DHT22;23763;48.130;11.602;2023-12-20T11:08:40;6.90;99.90
37938;DHT22;23763;48.130;11.602;2023-12-20T11:13:53;6.60;99.90
37938;DHT22;23763;48.130;11.602;2023-12-20T11:16:20;6.60;99.90
37938;DHT22;23763;48.130;11.602;2023-12-20T11:18:46;6.60;99.90
37938;DHT22;23763;48.130;11.602;2023-12-20T11:21:11;6.60;99.90
37938;DHT22;23763;48.130;11.602;2023-12-20T11:23:39;6.70;99.90
37938;DHT22;23763;48.130;11.602;2023-12-20T11:26:07;6.70;99.90
37938;DHT22;23763;48.130;11.602;2023-12-20T11:28:33;6.60;99.90
37938;DHT22;23763;48.130;11.602;2023-12-20T11:31:01;6.90;99.90
37938;DHT22;23763;48.130;11.602;2023-12-20T11:33:30;6.70;99.90
37938;DHT22;23763;48.130;11.602;2023-12-20T11:35:57;6.90;99.90
37938;DHT22;23763;48.130;11.602;2023-12-20T11:38:25;7.00;99.90
37938;DHT22;23763;48.130;11.602;2023-12-20T11:40:51;6.90;99.90
37938;DHT22;23763;48.130;11.602;2023-12-20T11:43:32;7.00;99.90
37938;DHT22;23763;48.130;11.602;2023-12-20T11:46:04;7.10;99.90
37938;DHT22;23763;48.130;11.602;2023-12-20T11:48:31;7.10;99.90
37938;DHT22;23763;48.130;11.602;2023-12-20T11:50:57;7.10;99.90
37938;DHT22;23763;48.130;11.602;2023-12-20T11:53:23;7.20;99.90
37938;DHT22;23763;48.130;11.602;2023-12-20T11:55:51;7.30;99.90
37938;DHT22;23763;48.130;11.602;2023-12-20T11:58:18;7.30;99.90
37938;DHT22;23763;48.130;11.602;2023-12-20T12:00:44;7.20;99.90
37938;DHT22;23763;48.130;11.602;2023-12-20T12:03:14;7.30;99.90
37938;DHT22;23763;48.130;11.602;2023-12-20T12:05:40;7.20;99.90
37938;DHT22;23763;48.130;11.602;2023-12-20T12:08:06;7.30;99.90
37938;DHT22;23763;48.130;11.602;2023-12-20T12:10:34;7.50;99.90
37938;DHT22;23763;48.130;11.602;2023-12-20T12:13:00;7.30;99.90
37938;DHT22;23763;48.130;11.602;2023-12-20T12:15:26;7.20;99.90
37938;DHT22;23763;48.130;11.602;2023-12-20T12:17:56;7.50;99.90
37938;DHT22;23763;48.130;11.602;2023-12-20T12:20:22;7.20;99.90
37938;DHT22;23763;48.130;11.602;2023-12-20T12:23:02;7.30;99.90
37938;DHT22;23763;48.130;11.602;2023-12-20T12:25:30;7.30;99.90
37938;DHT22;23763;48.130;11.602;2023-12-20T12:27:57;7.00;99.90
37938;DHT22;23763;48.130;11.602;2023-12-20T12:30:24;9.10;99.90
37938;DHT22;23763;48.130;11.602;2023-12-20T12:32:53;7.40;99.90
37938;DHT22;23763;48.130;11.602;2023-12-20T12:35:23;7.50;99.90
37938;DHT22;23763;48.130;11.602;2023-12-20T12:40:16;7.50;99.90
37938;DHT22;23763;48.130;11.602;2023-12-20T12:42:44;7.50;99.90
37938;DHT22;23763;48.130;11.602;2023-12-20T12:45:10;7.50;99.90
37938;DHT22;23763;48.130;11.602;2023-12-20T12:47:40;7.40;99.90
37938;DHT22;23763;48.130;11.602;2023-12-20T12:50:06;7.40;99.90
37938;DHT22;23763;48.130;11.602;2023-12-20T12:52:31;7.50;99.90
37938;DHT22;23763;48.130;11.602;2023-12-20T12:54:57;7.50;99.90
37938;DHT22;23763;48.130;11.602;2023-12-20T12:59:49;7.40;99.90
37938;DHT22;23763;48.130;11.602;2023-12-20T13:02:15;7.30;99.90
37938;DHT22;23763;48.130;11.602;2023-12-20T13:04:42;7.20;99.90
37938;DHT22;23763;48.130;11.602;2023-12-20T13:07:08;7.20;99.90
37938;DHT22;23763;48.130;11.602;2023-12-20T13:09:38;7.30;99.90
37938;DHT22;23763;48.130;11.602;2023-12-20T13:12:13;7.20;99.90
37938;DHT22;23763;48.130;11.602;2023-12-20T13:14:39;7.00;99.90
37938;DHT22;23763;48.130;11.602;2023-12-20T13:17:06;6.80;99.90
37938;DHT22;23763;48.130;11.602;2023-12-20T13:19:32;6.80;99.90
37938;DHT22;23763;48.130;11.602;2023-12-20T13:21:57;6.60;99.90
37938;DHT22;23763;48.130;11.602;2023-12-20T13:24:26;6.30;99.90
37938;DHT22;23763;48.130;11.602;2023-12-20T13:26:51;6.40;99.90
37938;DHT22;23763;48.130;11.602;2023-12-20T13:29:17;6.30;99.90
37938;DHT22;23763;48.130;11.602;2023-12-20T13:31:43;6.10;99.90
37938;DHT22;23763;48.130;11.602;2023-12-20T13:34:08;6.10;99.90
37938;DHT22;23763;48.130;11.602;2023-12-20T13:36:34;6.00;99.90
37938;DHT22;23763;48.130;11.602;2023-12-20T13:39:01;6.00;99.90
37938;DHT22;23763;48.130;11.602;2023-12-20T13:41:28;6.00;99.90
37938;DHT22;23763;48.130;11.602;2023-12-20T13:43:54;6.00;99.90
37938;DHT22;23763;48.130;11.602;2023-12-20T13:46:20;6.10;99.90
37938;DHT22;23763;48.130;11.602;2023-12-20T13:48:45;6.00;99.90
37938;DHT22;23763;48.130;11.602;2023-12-20T13:51:11;6.30;99.90
37938;DHT22;23763;48.130;11.602;2023-12-20T13:53:37;6.30;99.90
37938;DHT22;23763;48.130;11.602;2023-12-20T13:56:04;6.10;99.90
37938;DHT22;23763;48.130;11.602;2023-12-20T13:58:29;6.10;99.90
37938;DHT22;23763;48.130;11.602;2023-12-20T14:00:56;5.50;99.90
37938;DHT22;23763;48.130;11.602;2023-12-20T14:03:21;4.20;99.90
37938;DHT22;23763;48.130;11.602;2023-12-20T14:05:47;6.00;99.90
37938;DHT22;23763;48.130;11.602;2023-12-20T14:08:13;6.10;99.90
37938;DHT22;23763;48.130;11.602;2023-12-20T14:10:38;6.30;99.90
37938;DHT22;23763;48.130;11.602;2023-12-20T14:13:04;6.20;99.90
37938;DHT22;23763;48.130;11.602;2023-12-20T14:15:31;6.10;99.90
37938;DHT22;23763;48.130;11.602;2023-12-20T14:18:05;6.10;99.90
37938;DHT22;23763;48.130;11.602;2023-12-20T14:20:34;5.90;99.90
37938;DHT22;23763;48.130;11.602;2023-12-20T14:23:03;6.00;99.90
37938;DHT22;23763;48.130;11.602;2023-12-20T14:25:29;6.00;99.90
37938;DHT22;23763;48.130;11.602;2023-12-20T14:27:55;5.90;99.90
37938;DHT22;23763;48.130;11.602;2023-12-20T14:30:21;5.90;99.90
37938;DHT22;23763;48.130;11.602;2023-12-20T14:32:47;6.10;99.90
37938;DHT22;23763;48.130;11.602;2023-12-20T14:35:14;5.90;99.90
37938;DHT22;23763;48.130;11.602;2023-12-20T14:37:40;5.90;99.90
37938;DHT22;23763;48.130;11.602;2023-12-20T14:40:09;5.90;99.90
37938;DHT22;23763;48.130;11.602;2023-12-20T14:42:40;5.90;99.90
37938;DHT22;23763;48.130;11.602;2023-12-20T14:45:07;5.80;99.90
37938;DHT22;23763;48.130;11.602;2023-12-20T14:47:32;5.60;99.90
37938;DHT22;23763;48.130;11.602;2023-12-20T14:49:58;5.60;99.90
37938;DHT22;23763;48.130;11.602;2023-12-20T14:52:24;5.60;99.90
37938;DHT22;23763;48.130;11.602;2023-12-20T14:54:49;5.60;99.90
37938;DHT22;23763;48.130;11.602;2023-12-20T14:57:15;5.60;99.90
37938;DHT22;23763;48.130;11.602;2023-12-20T14:59:41;5.50;99.90
37938;DHT22;23763;48.130;11.602;2023-12-20T15:02:06;5.50;99.90
37938;DHT22;23763;48.130;11.602;2023-12-20T15:04:32;5.50;99.90
37938;DHT22;23763;48.130;11.602;2023-12-20T15:06:57;5.50;99.90
37938;DHT22;23763;48.130;11.602;2023-12-20T15:09:23;5.60;99.90
37938;DHT22;23763;48.130;11.602;2023-12-20T15:11:50;5.50;99.90
37938;DHT22;23763;48.130;11.602;2023-12-20T15:14:15;5.60;99.90
37938;DHT22;23763;48.130;11.602;2023-12-20T15:16:45;5.60;99.90
37938;DHT22;23763;48.130;11.602;2023-12-20T15:19:12;5.50;99.90
37938;DHT22;23763;48.130;11.602;2023-12-20T15:21:37;5.40;99.90
37938;DHT22;23763;48.130;11.602;2023-12-20T15:24:10;5.50;99.90
37938;DHT22;23763;48.130;11.602;2023-12-20T15:26:41;5.50;99.90
37938;DHT22;23763;48.130;11.602;2023-12-20T15:29:08;5.50;99.90
37938;DHT22;23763;48.130;11.602;2023-12-20T15:31:42;5.60;99.90
37938;DHT22;23763;48.130;11.602;2023-12-20T15:34:07;5.60;99.90
37938;DHT22;23763;48.130;11.602;2023-12-20T15:36:33;5.60;99.90
37938;DHT22;23763;48.130;11.602;2023-12-20T15:38:59;5.60;99.90
37938;DHT22;23763;48.130;11.602;2023-12-20T15:41:24;5.60;99.90
37938;DHT22;23763;48.130;11.602;2023-12-20T15:43:50;5.50;99.90
37938;DHT22;23763;48.130;11.602;2023-12-20T15:46:16;5.40;99.90
37938;DHT22;23763;48.130;11.602;2023-12-20T15:48:42;5.40;99.90
37938;DHT22;23763;48.130;11.602;2023-12-20T15:51:08;5.90;99.90
37938;DHT22;23763;48.130;11.602;2023-12-20T15:53:34;5.20;99.90
37938;DHT22;23763;48.130;11.602;2023-12-20T15:56:01;5.20;99.90
37938;DHT22;23763;48.130;11.602;2023-12-20T15:58:27;5.20;99.90
37938;DHT22;23763;48.130;11.602;2023-12-20T16:00:53;5.20;99.90
37938;DHT22;23763;48.130;11.602;2023-12-20T16:03:19;5.10;99.90
37938;DHT22;23763;48.130;11.602;2023-12-20T16:05:44;5.00;99.90
37938;DHT22;23763;48.130;11.602;2023-12-20T16:08:13;5.10;99.90
37938;DHT22;23763;48.130;11.602;2023-12-20T16:10:39;5.20;99.90
37938;DHT22;23763;48.130;11.602;2023-12-20T16:13:05;5.00;99.90
37938;DHT22;23763;48.130;11.602;2023-12-20T16:15:31;5.00;99.90
37938;DHT22;23763;48.130;11.602;2023-12-20T16:17:57;5.00;99.90
37938;DHT22;23763;48.130;11.602;2023-12-20T16:20:22;4.90;99.90
37938;DHT22;23763;48.130;11.602;2023-12-20T16:22:48;5.00;99.90
37938;DHT22;23763;48.130;11.602;2023-12-20T16:25:14;5.00;99.90
37938;DHT22;23763;48.130;11.602;2023-12-20T16:27:40;5.00;99.90
37938;DHT22;23763;48.130;11.602;2023-12-20T16:30:06;4.90;99.90
37938;DHT22;23763;48.130;11.602;2023-12-20T16:32:32;5.00;99.90
37938;DHT22;23763;48.130;11.602;2023-12-20T16:34:58;5.10;99.90
37938;DHT22;23763;48.130;11.602;2023-12-20T16:37:25;5.20;99.90
37938;DHT22;23763;48.130;11.602;2023-12-20T16:39:50;5.20;99.90
37938;DHT22;23763;48.130;11.602;2023-12-20T16:42:16;5.20;99.90
37938;DHT22;23763;48.130;11.602;2023-12-20T16:44:42;5.10;99.90
37938;DHT22;23763;48.130;11.602;2023-12-20T16:47:09;5.10;99.90
37938;DHT22;23763;48.130;11.602;2023-12-20T16:49:34;5.10;99.90
37938;DHT22;23763;48.130;11.602;2023-12-20T16:52:00;5.10;99.90
37938;DHT22;23763;48.130;11.602;2023-12-20T16:54:26;5.10;99.90
37938;DHT22;23763;48.130;11.602;2023-12-20T16:56:51;5.10;99.90
37938;DHT22;23763;48.130;11.602;2023-12-20T16:59:18;5.20;99.90
37938;DHT22;23763;48.130;11.602;2023-12-20T17:01:43;5.10;99.90
37938;DHT22;23763;48.130;11.602;2023-12-20T17:04:13;5.10;99.90
37938;DHT22;23763;48.130;11.602;2023-12-20T17:06:39;5.10;99.90
37938;DHT22;23763;48.130;11.602;2023-12-20T17:09:05;5.10;99.90
37938;DHT22;23763;48.130;11.602;2023-12-20T17:11:31;5.30;99.90
37938;DHT22;23763;48.130;11.602;2023-12-20T17:13:57;5.30;99.90
37938;DHT22;23763;48.130;11.602;2023-12-20T17:16:23;5.10;99.90
37938;DHT22;23763;48.130;11.602;2023-12-20T17:18:49;5.00;99.90
37938;DHT22;23763;48.130;11.602;2023-12-20T17:21:18;5.10;99.90
37938;DHT22;23763;48.130;11.602;2023-12-20T17:23:45;5.00;99.90
37938;DHT22;23763;48.130;11.602;2023-12-20T17:26:12;4.90;99.90
37938;DHT22;23763;48.130;11.602;2023-12-20T17:28:37;5.00;99.90
37938;DHT22;23763;48.130;11.602;2023-12-20T17:31:03;5.20;99.90
37938;DHT22;23763;48.130;11.602;2023-12-20T17:33:29;5.10;99.90
37938;DHT22;23763;48.130;11.602;2023-12-20T17:35:56;5.10;99.90
37938;DHT22;23763;48.130;11.602;2023-12-20T17:38:21;4.80;99.90
37938;DHT22;23763;48.130;11.602;2023-12-20T17:40:47;5.30;99.90
37938;DHT22;23763;48.130;11.602;2023-12-20T17:43:15;5.70;99.90
37938;DHT22;23763;48.130;11.602;2023-12-20T17:45:40;5.30;99.90
37938;DHT22;23763;48.130;11.602;2023-12-20T17:48:06;5.30;99.90
37938;DHT22;23763;48.130;11.602;2023-12-20T17:50:33;5.40;99.90
37938;DHT22;23763;48.130;11.602;2023-12-20T17:52:59;5.40;99.90
37938;DHT22;23763;48.130;11.602;2023-12-20T17:55:26;5.50;99.90
37938;DHT22;23763;48.130;11.602;2023-12-20T17:57:51;5.50;99.90
37938;DHT22;23763;48.130;11.602;2023-12-20T18:00:19;5.30;99.90
37938;DHT22;23763;48.130;11.602;2023-12-20T18:02:51;5.50;99.90
37938;DHT22;23763;48.130;11.602;2023-12-20T18:05:19;5.50;99.90
37938;DHT22;23763;48.130;11.602;2023-12-20T18:07:45;5.40;99.90
37938;DHT22;23763;48.130;11.602;2023-12-20T18:10:14;5.60;99.90
37938;DHT22;23763;48.130;11.602;2023-12-20T18:12:40;5.50;99.90
37938;DHT22;23763;48.130;11.602;2023-12-20T18:15:06;5.40;99.90
37938;DHT22;23763;48.130;11.602;2023-12-20T18:17:32;5.40;99.90
37938;DHT22;23763;48.130;11.602;2023-12-20T18:19:58;5.50;99.90
37938;DHT22;23763;48.130;11.602;2023-12-20T18:22:26;5.60;99.90
37938;DHT22;23763;48.130;11.602;2023-12-20T18:24:52;5.50;99.90
37938;DHT22;23763;48.130;11.602;2023-12-20T18:27:18;5.50;99.90
37938;DHT22;23763;48.130;11.602;2023-12-20T18:29:43;5.60;99.90
37938;DHT22;23763;48.130;11.602;2023-12-20T18:32:09;5.50;99.90
37938;DHT22;23763;48.130;11.602;2023-12-20T18:34:35;5.60;99.90
37938;DHT22;23763;48.130;11.602;2023-12-20T18:37:01;5.60;99.90
37938;DHT22;23763;48.130;11.602;2023-12-20T18:39:28;5.90;99.90
37938;DHT22;23763;48.130;11.602;2023-12-20T18:41:54;5.50;99.90
37938;DHT22;23763;48.130;11.602;2023-12-20T18:44:19;5.50;99.90
37938;DHT22;23763;48.130;11.602;2023-12-20T18:46:45;5.50;99.90
37938;DHT22;23763;48.130;11.602;2023-12-20T18:49:11;5.50;99.90
37938;DHT22;23763;48.130;11.602;2023-12-20T18:51:36;5.50;99.90
37938;DHT22;23763;48.130;11.602;2023-12-20T18:54:03;5.60;99.90
37938;DHT22;23763;48.130;11.602;2023-12-20T18:56:29;5.50;99.90
37938;DHT22;23763;48.130;11.602;2023-12-20T18:58:55;5.50;99.90
37938;DHT22;23763;48.130;11.602;2023-12-20T19:01:20;5.50;99.90
37938;DHT22;23763;48.130;11.602;2023-12-20T19:03:46;5.50;99.90